• Join FlightAware (Why Join?)
  • Login
  • US Flag 
Rudolph Flight #1: Arrived! 
03:50PM EST


 

Airport Tracker/Info


-or-


 

Live Flight TrackerFlight Track Log ✈ SWA1521 ✈ 07-Apr-2014 ✈ KSNA - KSJC

Flight Track Log - Related Links

Times and Time Zones

All times are in EDT time to prevent confusion due to time zone crossing. See the SWA1521 flight status page for this flight to view local times or setup timezone preferences in your user account.

Time Position Orientation Groundspeed Altitude Reporting Facility
EDT Latitude Longitude Course Direction KTS MPH feet Rate Location/Type
06:32PM 33.6489 -117.8867 189° South 134 154 1,700  Level Los Angeles Center
06:33PM 33.6064 -117.8947 189° South 149 171 3,200 1,860 Climbing Los Angeles Center
06:34PM 33.5461 -117.9156 196° South 210 242 5,600 1,800 Climbing Los Angeles Center
06:35PM 33.4808 -117.9697 215° Southwest 258 297 7,000 1,860 Climbing Los Angeles Center
06:36PM 33.4153 -118.0256 215° Southwest 283 326 9,500 3,180 Climbing Los Angeles Center
06:37PM 33.3394 -118.1069 222° Southwest 327 376 13,600 3,720 Climbing Los Angeles Center
06:38PM 33.3658 -118.2100 287° West 339 390 17,300 3,360 Climbing Los Angeles Center
06:39PM 33.4325 -118.2989 312° West 353 406 20,600 3,060 Climbing Los Angeles Center
06:40PM 33.5017 -118.3936 311° West 368 423 23,700 2,640 Climbing Los Angeles Center
06:41PM 33.5750 -118.4914 312° West 385 443 26,200 2,280 Climbing Los Angeles Center
06:42PM 33.6514 -118.5953 311° West 405 466 28,500 2,100 Climbing Los Angeles Center
06:43PM 33.7294 -118.6997 312° West 411 473 30,600 1,980 Climbing Los Angeles Center
06:45PM 33.8239 -118.8289 311° West 422 486 32,700 2,040 Climbing Los Angeles Center
06:46PM 33.9044 -118.9378 312° West 431 496 34,900 2,040 Climbing Los Angeles Center
06:47PM 33.9831 -119.0450 311° West 431 496 37,000 1,620 Climbing Los Angeles Center
06:48PM 34.0586 -119.1494 311° West 420 483 38,300 1,140 Climbing Los Angeles Center
06:49PM 34.1364 -119.2567 311° West 421 484 39,400 780 Climbing Los Angeles Center
06:50PM 34.2133 -119.3625 311° West 422 486 40,000 240 Climbing Los Angeles Center
06:51PM 34.3064 -119.4908 311° West 422 486 40,000  Level Los Angeles Center
06:52PM 34.3828 -119.5978 311° West 422 486 40,000  Level Los Angeles Center
06:53PM 34.4600 -119.7061 311° West 422 486 40,000  Level Los Angeles Center
06:54PM 34.5472 -119.8036 317° Northwest 434 499 40,000  Level Los Angeles Center
06:55PM 34.6481 -119.8839 327° Northwest 446 513 40,000  Level Los Angeles Center
06:56PM 34.7667 -119.9828 326° Northwest 436 502 40,000  Level Los Angeles Center
06:57PM 34.8664 -120.0656 326° Northwest 434 499 40,000  Level Los Angeles Center
06:58PM 34.9589 -120.1425 326° Northwest 434 499 40,000  Level Los Angeles Center
06:59PM 35.0583 -120.2253 326° Northwest 434 499 40,000  Level Los Angeles Center
07:00PM 35.1753 -120.3239 325° Northwest 432 497 40,000  Level Los Angeles Center
07:01PM 35.2742 -120.4053 326° Northwest 432 497 40,000  Level Los Angeles Center
07:02PM 35.3694 -120.4903 324° Northwest 429 494 40,000  Level Los Angeles Center
07:03PM 35.4697 -120.5747 326° Northwest 432 497 40,000  Level Los Angeles Center
07:04PM 35.5692 -120.6589 325° Northwest 433 498 40,000  Level Los Angeles Center
07:05PM 35.6864 -120.7578 326° Northwest 433 498 40,000 -840 Level Los Angeles Center
07:06PM 35.7853 -120.8414 326° Northwest 432 497 38,300 -2,160 Descending Oakland Center
07:07PM 35.8817 -120.9233 325° Northwest 423 487 35,500 -3,180 Descending Oakland Center
07:08PM 35.9997 -121.0256 325° Northwest 428 493 31,800 -3,000 Descending Oakland Center
07:09PM 36.0953 -121.1081 325° Northwest 421 484 29,400 -2,400 Descending Oakland Center
07:10PM 36.1878 -121.1897 325° Northwest 409 471 27,000 -2,340 Descending Oakland Center
07:11PM 36.2778 -121.2672 325° Northwest 399 459 24,700 -2,400 Descending Oakland Center
07:12PM 36.3653 -121.3414 326° Northwest 388 447 22,200 -3,000 Descending Oakland Center
07:14PM 36.4522 -121.4189 324° Northwest 386 444 18,700 -2,580 Descending Oakland Center
07:15PM 36.5531 -121.4606 342° North 380 437 17,000 -1,860 Descending Oakland Center
07:16PM 36.6544 -121.4833 350° North 373 429 14,900 -2,160 Descending Oakland Center
07:17PM 36.7514 -121.5050 350° North 361 415 12,700 -2,220 Descending Oakland Center
07:18PM 36.8614 -121.5306 349° North 351 404 10,400 -1,620 Descending Oakland Center
07:19PM 36.9469 -121.5486 350° North 326 375 9,400 -1,320 Descending Oakland Center
07:20PM 37.0181 -121.5994 330° Northwest 309 356 7,700 -1,620 Descending Oakland Center
07:21PM 37.0847 -121.6550 326° Northwest 295 339 6,200 -1,320 Descending Oakland Center
07:22PM 37.1522 -121.7061 329° Northwest 290 334 5,100 -1,080 Descending Oakland Center
07:23PM 37.2069 -121.7617 321° Northwest 269 310 4,000 -1,200 Descending Oakland Center
07:24PM 37.2564 -121.8164 319° Northwest 252 290 2,700 -1,320 Descending Oakland Center
07:25PM 37.2989 -121.8622 319° Northwest 223 257 1,400 -1,080 Descending Oakland Center
07:26PM 37.3367 -121.9028 320° Northwest 173 199 500 -900 Descending Oakland Center
07:30PM 37.3500 -121.9167 North  Level FlightAware Approximate
07:37PM 37.3627 -121.9291 North  Level Estimated